sensor_id;sensor_type;location;lat;lon;timestamp;P1;durP1;ratioP1;P2;durP2;ratioP2
64011;SDS011;50211;52.768;12.124;2023-06-26T00:00:23;12.23;;;9.73;;
64011;SDS011;50211;52.768;12.124;2023-06-26T00:02:49;13.73;;;9.70;;
64011;SDS011;50211;52.768;12.124;2023-06-26T00:05:14;15.82;;;10.23;;
64011;SDS011;50211;52.768;12.124;2023-06-26T00:07:40;13.75;;;9.48;;
64011;SDS011;50211;52.768;12.124;2023-06-26T00:10:06;14.68;;;10.15;;
64011;SDS011;50211;52.768;12.124;2023-06-26T00:12:32;12.13;;;9.45;;
64011;SDS011;50211;52.768;12.124;2023-06-26T00:14:58;12.32;;;9.82;;
64011;SDS011;50211;52.768;12.124;2023-06-26T00:17:23;13.98;;;9.80;;
64011;SDS011;50211;52.768;12.124;2023-06-26T00:19:49;10.77;;;9.15;;
64011;SDS011;50211;52.768;12.124;2023-06-26T00:22:15;12.77;;;9.80;;
64011;SDS011;50211;52.768;12.124;2023-06-26T00:24:41;14.13;;;10.98;;
64011;SDS011;50211;52.768;12.124;2023-06-26T00:27:07;11.27;;;9.65;;
64011;SDS011;50211;52.768;12.124;2023-06-26T00:29:32;13.43;;;9.93;;
64011;SDS011;50211;52.768;12.124;2023-06-26T00:31:58;17.58;;;10.68;;
64011;SDS011;50211;52.768;12.124;2023-06-26T00:34:23;14.45;;;10.35;;
64011;SDS011;50211;52.768;12.124;2023-06-26T00:36:49;14.65;;;10.45;;
64011;SDS011;50211;52.768;12.124;2023-06-26T00:39:14;12.38;;;9.65;;
64011;SDS011;50211;52.768;12.124;2023-06-26T00:41:40;12.07;;;9.07;;
64011;SDS011;50211;52.768;12.124;2023-06-26T00:44:05;14.07;;;9.88;;
64011;SDS011;50211;52.768;12.124;2023-06-26T00:46:31;12.23;;;9.70;;
64011;SDS011;50211;52.768;12.124;2023-06-26T00:48:58;12.15;;;9.43;;
64011;SDS011;50211;52.768;12.124;2023-06-26T00:51:25;14.50;;;10.43;;
64011;SDS011;50211;52.768;12.124;2023-06-26T00:53:52;13.10;;;9.68;;
64011;SDS011;50211;52.768;12.124;2023-06-26T00:56:20;13.77;;;10.27;;
64011;SDS011;50211;52.768;12.124;2023-06-26T00:58:45;19.55;;;10.35;;
64011;SDS011;50211;52.768;12.124;2023-06-26T01:01:11;12.82;;;9.98;;
64011;SDS011;50211;52.768;12.124;2023-06-26T01:03:42;10.45;;;9.35;;
64011;SDS011;50211;52.768;12.124;2023-06-26T01:06:09;13.43;;;9.25;;
64011;SDS011;50211;52.768;12.124;2023-06-26T01:08:38;11.88;;;9.27;;
64011;SDS011;50211;52.768;12.124;2023-06-26T01:11:06;14.63;;;10.40;;
64011;SDS011;50211;52.768;12.124;2023-06-26T01:13:31;13.90;;;9.90;;
64011;SDS011;50211;52.768;12.124;2023-06-26T01:15:58;14.65;;;9.85;;
64011;SDS011;50211;52.768;12.124;2023-06-26T01:18:24;12.57;;;10.00;;
64011;SDS011;50211;52.768;12.124;2023-06-26T01:20:51;14.57;;;10.68;;
64011;SDS011;50211;52.768;12.124;2023-06-26T01:23:27;20.60;;;11.05;;
64011;SDS011;50211;52.768;12.124;2023-06-26T01:26:12;13.52;;;11.05;;
64011;SDS011;50211;52.768;12.124;2023-06-26T01:28:42;15.30;;;10.73;;
64011;SDS011;50211;52.768;12.124;2023-06-26T01:31:10;15.93;;;11.88;;
64011;SDS011;50211;52.768;12.124;2023-06-26T01:33:36;15.88;;;10.73;;
64011;SDS011;50211;52.768;12.124;2023-06-26T01:36:03;15.75;;;11.00;;
64011;SDS011;50211;52.768;12.124;2023-06-26T01:38:29;18.65;;;10.90;;
64011;SDS011;50211;52.768;12.124;2023-06-26T01:40:54;18.02;;;10.52;;
64011;SDS011;50211;52.768;12.124;2023-06-26T01:43:37;16.73;;;9.85;;
64011;SDS011;50211;52.768;12.124;2023-06-26T01:46:27;13.77;;;9.75;;
64011;SDS011;50211;52.768;12.124;2023-06-26T01:51:55;19.55;;;10.85;;
64011;SDS011;50211;52.768;12.124;2023-06-26T01:54:29;17.55;;;9.55;;
64011;SDS011;50211;52.768;12.124;2023-06-26T01:56:56;13.98;;;9.30;;
64011;SDS011;50211;52.768;12.124;2023-06-26T01:59:23;23.52;;;10.70;;
64011;SDS011;50211;52.768;12.124;2023-06-26T02:01:52;16.80;;;10.63;;
64011;SDS011;50211;52.768;12.124;2023-06-26T02:04:17;19.08;;;10.65;;
64011;SDS011;50211;52.768;12.124;2023-06-26T02:06:43;18.85;;;11.05;;
64011;SDS011;50211;52.768;12.124;2023-06-26T02:09:08;14.15;;;9.68;;
64011;SDS011;50211;52.768;12.124;2023-06-26T02:11:34;17.55;;;10.90;;
64011;SDS011;50211;52.768;12.124;2023-06-26T02:14:00;16.10;;;9.52;;
64011;SDS011;50211;52.768;12.124;2023-06-26T02:16:25;16.25;;;10.43;;
64011;SDS011;50211;52.768;12.124;2023-06-26T02:18:51;26.58;;;11.05;;
64011;SDS011;50211;52.768;12.124;2023-06-26T02:21:16;13.13;;;9.93;;
64011;SDS011;50211;52.768;12.124;2023-06-26T02:23:42;15.07;;;10.98;;
64011;SDS011;50211;52.768;12.124;2023-06-26T02:26:07;16.00;;;10.55;;
64011;SDS011;50211;52.768;12.124;2023-06-26T02:28:32;15.60;;;10.18;;
64011;SDS011;50211;52.768;12.124;2023-06-26T02:30:59;13.73;;;8.75;;
64011;SDS011;50211;52.768;12.124;2023-06-26T02:33:25;16.05;;;9.45;;
64011;SDS011;50211;52.768;12.124;2023-06-26T02:35:51;13.50;;;9.48;;
64011;SDS011;50211;52.768;12.124;2023-06-26T02:38:16;13.07;;;9.65;;
64011;SDS011;50211;52.768;12.124;2023-06-26T02:40:42;14.50;;;9.90;;
64011;SDS011;50211;52.768;12.124;2023-06-26T02:43:07;19.67;;;9.85;;
64011;SDS011;50211;52.768;12.124;2023-06-26T02:45:33;13.00;;;9.65;;
64011;SDS011;50211;52.768;12.124;2023-06-26T02:47:58;15.95;;;9.95;;
64011;SDS011;50211;52.768;12.124;2023-06-26T02:50:24;14.23;;;9.45;;
64011;SDS011;50211;52.768;12.124;2023-06-26T02:52:49;17.33;;;10.85;;
64011;SDS011;50211;52.768;12.124;2023-06-26T02:55:17;16.65;;;9.93;;
64011;SDS011;50211;52.768;12.124;2023-06-26T02:57:44;17.05;;;10.75;;
64011;SDS011;50211;52.768;12.124;2023-06-26T03:00:09;13.60;;;10.65;;
64011;SDS011;50211;52.768;12.124;2023-06-26T03:02:36;16.58;;;10.38;;
64011;SDS011;50211;52.768;12.124;2023-06-26T03:05:02;17.08;;;10.68;;
64011;SDS011;50211;52.768;12.124;2023-06-26T03:07:27;15.15;;;10.10;;
64011;SDS011;50211;52.768;12.124;2023-06-26T03:09:53;14.48;;;10.48;;
64011;SDS011;50211;52.768;12.124;2023-06-26T03:12:18;17.10;;;11.43;;
64011;SDS011;50211;52.768;12.124;2023-06-26T03:14:44;15.07;;;10.68;;
64011;SDS011;50211;52.768;12.124;2023-06-26T03:17:09;14.30;;;10.20;;
64011;SDS011;50211;52.768;12.124;2023-06-26T03:19:35;19.17;;;11.50;;
64011;SDS011;50211;52.768;12.124;2023-06-26T03:22:00;14.30;;;10.10;;
64011;SDS011;50211;52.768;12.124;2023-06-26T03:24:26;22.50;;;10.85;;
64011;SDS011;50211;52.768;12.124;2023-06-26T03:26:51;14.85;;;10.35;;
64011;SDS011;50211;52.768;12.124;2023-06-26T03:29:17;15.15;;;10.85;;
64011;SDS011;50211;52.768;12.124;2023-06-26T03:31:42;14.52;;;10.45;;
64011;SDS011;50211;52.768;12.124;2023-06-26T03:34:08;14.35;;;11.13;;
64011;SDS011;50211;52.768;12.124;2023-06-26T03:36:33;14.63;;;10.15;;
64011;SDS011;50211;52.768;12.124;2023-06-26T03:39:00;16.23;;;10.55;;
64011;SDS011;50211;52.768;12.124;2023-06-26T03:41:26;14.25;;;10.40;;
64011;SDS011;50211;52.768;12.124;2023-06-26T03:43:51;18.55;;;10.80;;
64011;SDS011;50211;52.768;12.124;2023-06-26T03:46:17;19.60;;;11.50;;
64011;SDS011;50211;52.768;12.124;2023-06-26T03:48:42;17.08;;;11.25;;
64011;SDS011;50211;52.768;12.124;2023-06-26T03:51:08;15.77;;;11.05;;
64011;SDS011;50211;52.768;12.124;2023-06-26T03:53:33;14.43;;;10.52;;
64011;SDS011;50211;52.768;12.124;2023-06-26T03:55:59;16.00;;;10.95;;
64011;SDS011;50211;52.768;12.124;2023-06-26T03:58:25;17.55;;;10.85;;
64011;SDS011;50211;52.768;12.124;2023-06-26T04:00:50;18.52;;;11.10;;
64011;SDS011;50211;52.768;12.124;2023-06-26T04:03:16;16.38;;;11.38;;
64011;SDS011;50211;52.768;12.124;2023-06-26T04:05:41;17.15;;;11.63;;
64011;SDS011;50211;52.768;12.124;2023-06-26T04:08:07;15.88;;;11.57;;
64011;SDS011;50211;52.768;12.124;2023-06-26T04:10:33;15.32;;;11.38;;
64011;SDS011;50211;52.768;12.124;2023-06-26T04:12:59;14.60;;;11.73;;
64011;SDS011;50211;52.768;12.124;2023-06-26T04:15:24;15.55;;;10.98;;
64011;SDS011;50211;52.768;12.124;2023-06-26T04:17:50;20.60;;;11.55;;
64011;SDS011;50211;52.768;12.124;2023-06-26T04:20:15;17.67;;;11.48;;
64011;SDS011;50211;52.768;12.124;2023-06-26T04:22:41;15.65;;;10.48;;
64011;SDS011;50211;52.768;12.124;2023-06-26T04:25:06;16.30;;;10.65;;
64011;SDS011;50211;52.768;12.124;2023-06-26T04:27:33;17.30;;;11.10;;
64011;SDS011;50211;52.768;12.124;2023-06-26T04:29:59;17.33;;;10.98;;
64011;SDS011;50211;52.768;12.124;2023-06-26T04:32:24;15.82;;;10.18;;
64011;SDS011;50211;52.768;12.124;2023-06-26T04:34:50;14.20;;;10.50;;
64011;SDS011;50211;52.768;12.124;2023-06-26T04:37:15;13.73;;;10.50;;
64011;SDS011;50211;52.768;12.124;2023-06-26T04:39:42;15.18;;;10.95;;
64011;SDS011;50211;52.768;12.124;2023-06-26T04:42:07;19.00;;;10.77;;
64011;SDS011;50211;52.768;12.124;2023-06-26T04:44:34;12.20;;;9.70;;
64011;SDS011;50211;52.768;12.124;2023-06-26T04:46:59;13.40;;;9.93;;
64011;SDS011;50211;52.768;12.124;2023-06-26T04:49:25;15.18;;;9.77;;
64011;SDS011;50211;52.768;12.124;2023-06-26T04:51:52;14.02;;;10.13;;
64011;SDS011;50211;52.768;12.124;2023-06-26T04:54:18;12.93;;;9.27;;
64011;SDS011;50211;52.768;12.124;2023-06-26T04:56:43;13.27;;;9.82;;
64011;SDS011;50211;52.768;12.124;2023-06-26T04:59:12;15.10;;;9.57;;
64011;SDS011;50211;52.768;12.124;2023-06-26T05:01:37;14.13;;;9.00;;
64011;SDS011;50211;52.768;12.124;2023-06-26T05:04:04;11.18;;;8.85;;
64011;SDS011;50211;52.768;12.124;2023-06-26T05:06:30;12.48;;;9.32;;
64011;SDS011;50211;52.768;12.124;2023-06-26T05:08:55;11.30;;;8.07;;
64011;SDS011;50211;52.768;12.124;2023-06-26T05:11:21;13.95;;;9.50;;
64011;SDS011;50211;52.768;12.124;2023-06-26T05:13:47;12.23;;;9.40;;
64011;SDS011;50211;52.768;12.124;2023-06-26T05:16:12;15.40;;;8.48;;
64011;SDS011;50211;52.768;12.124;2023-06-26T05:18:38;12.18;;;8.38;;
64011;SDS011;50211;52.768;12.124;2023-06-26T05:21:03;11.05;;;8.27;;
64011;SDS011;50211;52.768;12.124;2023-06-26T05:23:32;9.70;;;7.88;;
64011;SDS011;50211;52.768;12.124;2023-06-26T05:25:59;8.45;;;7.55;;
64011;SDS011;50211;52.768;12.124;2023-06-26T05:28:29;11.25;;;8.30;;
64011;SDS011;50211;52.768;12.124;2023-06-26T05:30:58;9.93;;;7.38;;
64011;SDS011;50211;52.768;12.124;2023-06-26T05:33:24;10.00;;;7.43;;
64011;SDS011;50211;52.768;12.124;2023-06-26T05:35:51;10.07;;;7.78;;
64011;SDS011;50211;52.768;12.124;2023-06-26T05:38:18;11.13;;;7.78;;
64011;SDS011;50211;52.768;12.124;2023-06-26T05:40:43;10.30;;;7.43;;
64011;SDS011;50211;52.768;12.124;2023-06-26T05:43:09;8.85;;;7.40;;
64011;SDS011;50211;52.768;12.124;2023-06-26T05:45:35;8.63;;;6.80;;
64011;SDS011;50211;52.768;12.124;2023-06-26T05:48:00;9.95;;;6.93;;
64011;SDS011;50211;52.768;12.124;2023-06-26T05:50:26;10.60;;;6.65;;
64011;SDS011;50211;52.768;12.124;2023-06-26T05:52:53;7.78;;;6.93;;
64011;SDS011;50211;52.768;12.124;2023-06-26T05:55:19;13.02;;;6.80;;
64011;SDS011;50211;52.768;12.124;2023-06-26T05:57:45;9.60;;;6.78;;
64011;SDS011;50211;52.768;12.124;2023-06-26T06:00:12;7.53;;;6.40;;
64011;SDS011;50211;52.768;12.124;2023-06-26T06:02:38;10.10;;;6.60;;
64011;SDS011;50211;52.768;12.124;2023-06-26T06:05:04;8.48;;;6.90;;
64011;SDS011;50211;52.768;12.124;2023-06-26T06:07:31;8.23;;;5.97;;
64011;SDS011;50211;52.768;12.124;2023-06-26T06:09:57;9.73;;;6.30;;
64011;SDS011;50211;52.768;12.124;2023-06-26T06:12:23;9.70;;;6.10;;
64011;SDS011;50211;52.768;12.124;2023-06-26T06:14:49;6.65;;;5.38;;
64011;SDS011;50211;52.768;12.124;2023-06-26T06:17:14;6.55;;;4.10;;
64011;SDS011;50211;52.768;12.124;2023-06-26T06:19:40;9.65;;;4.15;;
64011;SDS011;50211;52.768;12.124;2023-06-26T06:22:05;5.13;;;3.92;;
64011;SDS011;50211;52.768;12.124;2023-06-26T06:24:31;5.90;;;4.45;;
64011;SDS011;50211;52.768;12.124;2023-06-26T06:26:56;4.70;;;3.60;;
64011;SDS011;50211;52.768;12.124;2023-06-26T06:29:22;3.90;;;3.50;;
64011;SDS011;50211;52.768;12.124;2023-06-26T06:31:47;4.68;;;3.78;;
64011;SDS011;50211;52.768;12.124;2023-06-26T06:34:13;9.73;;;4.22;;
64011;SDS011;50211;52.768;12.124;2023-06-26T06:36:39;6.35;;;3.80;;
64011;SDS011;50211;52.768;12.124;2023-06-26T06:39:04;3.85;;;3.40;;
64011;SDS011;50211;52.768;12.124;2023-06-26T06:41:30;6.72;;;4.47;;
64011;SDS011;50211;52.768;12.124;2023-06-26T06:43:55;5.18;;;3.65;;
64011;SDS011;50211;52.768;12.124;2023-06-26T06:46:21;6.22;;;3.60;;
64011;SDS011;50211;52.768;12.124;2023-06-26T06:48:47;5.00;;;3.78;;
64011;SDS011;50211;52.768;12.124;2023-06-26T06:51:12;4.55;;;3.63;;
64011;SDS011;50211;52.768;12.124;2023-06-26T06:53:38;5.07;;;4.15;;
64011;SDS011;50211;52.768;12.124;2023-06-26T06:56:03;5.28;;;3.38;;
64011;SDS011;50211;52.768;12.124;2023-06-26T06:58:29;4.93;;;3.92;;
64011;SDS011;50211;52.768;12.124;2023-06-26T07:00:58;6.78;;;4.18;;
64011;SDS011;50211;52.768;12.124;2023-06-26T07:03:24;6.88;;;4.13;;
64011;SDS011;50211;52.768;12.124;2023-06-26T07:05:49;9.23;;;4.28;;
64011;SDS011;50211;52.768;12.124;2023-06-26T07:08:15;5.68;;;3.80;;
64011;SDS011;50211;52.768;12.124;2023-06-26T07:10:41;7.82;;;4.30;;
64011;SDS011;50211;52.768;12.124;2023-06-26T07:13:06;4.60;;;3.80;;
64011;SDS011;50211;52.768;12.124;2023-06-26T07:15:32;6.25;;;3.80;;
64011;SDS011;50211;52.768;12.124;2023-06-26T07:17:57;4.38;;;3.58;;
64011;SDS011;50211;52.768;12.124;2023-06-26T07:20:23;7.03;;;3.42;;
64011;SDS011;50211;52.768;12.124;2023-06-26T07:22:48;10.95;;;4.22;;
64011;SDS011;50211;52.768;12.124;2023-06-26T07:25:14;5.18;;;4.10;;
64011;SDS011;50211;52.768;12.124;2023-06-26T07:27:40;5.43;;;3.95;;
64011;SDS011;50211;52.768;12.124;2023-06-26T07:30:06;3.92;;;3.47;;
64011;SDS011;50211;52.768;12.124;2023-06-26T07:32:35;5.47;;;3.75;;
64011;SDS011;50211;52.768;12.124;2023-06-26T07:35:01;6.30;;;4.25;;
64011;SDS011;50211;52.768;12.124;2023-06-26T07:37:26;4.82;;;3.95;;
64011;SDS011;50211;52.768;12.124;2023-06-26T07:39:52;5.05;;;3.88;;
64011;SDS011;50211;52.768;12.124;2023-06-26T07:42:17;4.65;;;4.15;;
64011;SDS011;50211;52.768;12.124;2023-06-26T07:44:43;5.45;;;3.75;;
64011;SDS011;50211;52.768;12.124;2023-06-26T07:47:09;5.63;;;3.92;;
64011;SDS011;50211;52.768;12.124;2023-06-26T07:49:35;5.82;;;4.03;;
64011;SDS011;50211;52.768;12.124;2023-06-26T07:52:00;4.45;;;3.72;;
64011;SDS011;50211;52.768;12.124;2023-06-26T07:54:26;4.82;;;3.90;;
64011;SDS011;50211;52.768;12.124;2023-06-26T07:57:01;5.05;;;3.75;;
64011;SDS011;50211;52.768;12.124;2023-06-26T07:59:29;4.57;;;3.65;;
64011;SDS011;50211;52.768;12.124;2023-06-26T08:01:55;4.60;;;3.95;;
64011;SDS011;50211;52.768;12.124;2023-06-26T08:04:23;6.15;;;3.65;;
64011;SDS011;50211;52.768;12.124;2023-06-26T08:06:53;6.07;;;4.22;;
64011;SDS011;50211;52.768;12.124;2023-06-26T08:09:21;4.00;;;3.40;;
64011;SDS011;50211;52.768;12.124;2023-06-26T08:11:47;4.78;;;3.75;;
64011;SDS011;50211;52.768;12.124;2023-06-26T08:14:13;4.38;;;3.97;;
64011;SDS011;50211;52.768;12.124;2023-06-26T08:16:39;8.57;;;3.78;;
64011;SDS011;50211;52.768;12.124;2023-06-26T08:19:05;4.43;;;3.47;;
64011;SDS011;50211;52.768;12.124;2023-06-26T08:21:31;4.82;;;3.35;;
64011;SDS011;50211;52.768;12.124;2023-06-26T08:23:56;4.70;;;3.92;;
64011;SDS011;50211;52.768;12.124;2023-06-26T08:26:22;5.40;;;3.60;;
64011;SDS011;50211;52.768;12.124;2023-06-26T08:28:48;7.00;;;3.67;;
64011;SDS011;50211;52.768;12.124;2023-06-26T08:31:13;5.82;;;3.50;;
64011;SDS011;50211;52.768;12.124;2023-06-26T08:33:39;4.85;;;3.83;;
64011;SDS011;50211;52.768;12.124;2023-06-26T08:36:04;3.80;;;3.42;;
64011;SDS011;50211;52.768;12.124;2023-06-26T08:38:30;4.13;;;3.50;;
64011;SDS011;50211;52.768;12.124;2023-06-26T08:40:55;4.80;;;3.88;;
64011;SDS011;50211;52.768;12.124;2023-06-26T08:43:21;4.00;;;3.63;;
64011;SDS011;50211;52.768;12.124;2023-06-26T08:45:47;9.00;;;3.40;;
64011;SDS011;50211;52.768;12.124;2023-06-26T08:48:17;11.45;;;4.00;;
64011;SDS011;50211;52.768;12.124;2023-06-26T08:50:43;4.07;;;3.67;;
64011;SDS011;50211;52.768;12.124;2023-06-26T08:56:12;6.32;;;3.75;;
64011;SDS011;50211;52.768;12.124;2023-06-26T08:58:42;4.25;;;3.70;;
64011;SDS011;50211;52.768;12.124;2023-06-26T09:01:07;4.68;;;4.20;;
64011;SDS011;50211;52.768;12.124;2023-06-26T09:03:33;6.13;;;4.15;;
64011;SDS011;50211;52.768;12.124;2023-06-26T09:06:00;6.00;;;4.13;;
64011;SDS011;50211;52.768;12.124;2023-06-26T09:08:25;4.90;;;3.80;;
64011;SDS011;50211;52.768;12.124;2023-06-26T09:10:51;4.07;;;3.67;;
64011;SDS011;50211;52.768;12.124;2023-06-26T09:13:17;358.17;;;38.38;;
64011;SDS011;50211;52.768;12.124;2023-06-26T09:15:43;4.30;;;3.70;;
64011;SDS011;50211;52.768;12.124;2023-06-26T09:18:10;4.00;;;3.50;;
64011;SDS011;50211;52.768;12.124;2023-06-26T09:20:36;5.15;;;3.88;;
64011;SDS011;50211;52.768;12.124;2023-06-26T09:23:01;5.85;;;3.65;;
64011;SDS011;50211;52.768;12.124;2023-06-26T09:25:28;4.90;;;4.05;;
64011;SDS011;50211;52.768;12.124;2023-06-26T09:27:54;5.40;;;4.43;;
64011;SDS011;50211;52.768;12.124;2023-06-26T09:30:20;5.75;;;4.50;;
64011;SDS011;50211;52.768;12.124;2023-06-26T09:32:46;4.03;;;3.53;;
64011;SDS011;50211;52.768;12.124;2023-06-26T09:35:12;4.18;;;3.78;;
64011;SDS011;50211;52.768;12.124;2023-06-26T09:37:38;4.70;;;4.10;;
64011;SDS011;50211;52.768;12.124;2023-06-26T09:40:04;4.82;;;4.22;;
64011;SDS011;50211;52.768;12.124;2023-06-26T09:42:30;4.57;;;3.88;;
64011;SDS011;50211;52.768;12.124;2023-06-26T09:44:56;7.05;;;3.83;;
64011;SDS011;50211;52.768;12.124;2023-06-26T09:47:22;6.45;;;3.47;;
64011;SDS011;50211;52.768;12.124;2023-06-26T09:49:47;4.97;;;3.83;;
64011;SDS011;50211;52.768;12.124;2023-06-26T09:52:14;5.10;;;4.25;;
64011;SDS011;50211;52.768;12.124;2023-06-26T09:54:41;4.78;;;4.25;;
64011;SDS011;50211;52.768;12.124;2023-06-26T09:57:10;5.05;;;3.92;;
64011;SDS011;50211;52.768;12.124;2023-06-26T09:59:36;4.35;;;3.83;;
64011;SDS011;50211;52.768;12.124;2023-06-26T10:02:02;4.28;;;3.75;;
64011;SDS011;50211;52.768;12.124;2023-06-26T10:04:28;4.57;;;3.85;;
64011;SDS011;50211;52.768;12.124;2023-06-26T10:06:57;7.30;;;3.83;;
64011;SDS011;50211;52.768;12.124;2023-06-26T10:09:25;7.18;;;4.30;;
64011;SDS011;50211;52.768;12.124;2023-06-26T10:11:55;7.05;;;4.60;;
64011;SDS011;50211;52.768;12.124;2023-06-26T10:14:23;4.68;;;3.92;;
64011;SDS011;50211;52.768;12.124;2023-06-26T10:16:59;4.82;;;3.97;;
64011;SDS011;50211;52.768;12.124;2023-06-26T10:19:26;4.30;;;3.72;;
64011;SDS011;50211;52.768;12.124;2023-06-26T10:21:53;4.80;;;3.90;;
64011;SDS011;50211;52.768;12.124;2023-06-26T10:24:20;5.30;;;3.92;;
64011;SDS011;50211;52.768;12.124;2023-06-26T10:26:47;4.40;;;4.00;;
64011;SDS011;50211;52.768;12.124;2023-06-26T10:29:16;4.85;;;3.80;;
64011;SDS011;50211;52.768;12.124;2023-06-26T10:31:47;4.82;;;3.95;;
64011;SDS011;50211;52.768;12.124;2023-06-26T10:34:16;4.90;;;3.83;;
64011;SDS011;50211;52.768;12.124;2023-06-26T10:36:42;4.78;;;4.20;;
64011;SDS011;50211;52.768;12.124;2023-06-26T10:39:07;5.78;;;4.30;;
64011;SDS011;50211;52.768;12.124;2023-06-26T10:41:39;5.22;;;4.18;;
64011;SDS011;50211;52.768;12.124;2023-06-26T10:44:11;4.82;;;4.32;;
64011;SDS011;50211;52.768;12.124;2023-06-26T10:46:53;5.35;;;3.53;;
64011;SDS011;50211;52.768;12.124;2023-06-26T10:49:24;5.55;;;4.43;;
64011;SDS011;50211;52.768;12.124;2023-06-26T10:51:51;5.30;;;4.32;;
64011;SDS011;50211;52.768;12.124;2023-06-26T10:54:17;6.60;;;4.68;;
64011;SDS011;50211;52.768;12.124;2023-06-26T10:56:45;5.30;;;4.50;;
64011;SDS011;50211;52.768;12.124;2023-06-26T10:59:15;9.48;;;5.35;;
64011;SDS011;50211;52.768;12.124;2023-06-26T11:01:43;10.88;;;5.30;;
64011;SDS011;50211;52.768;12.124;2023-06-26T11:04:11;6.22;;;5.10;;
64011;SDS011;50211;52.768;12.124;2023-06-26T11:06:39;6.88;;;5.13;;
64011;SDS011;50211;52.768;12.124;2023-06-26T11:14:15;8.85;;;5.15;;
64011;SDS011;50211;52.768;12.124;2023-06-26T11:16:42;7.57;;;5.57;;
64011;SDS011;50211;52.768;12.124;2023-06-26T11:19:07;5.80;;;4.88;;
64011;SDS011;50211;52.768;12.124;2023-06-26T11:21:34;7.78;;;5.00;;
64011;SDS011;50211;52.768;12.124;2023-06-26T11:24:02;8.40;;;4.95;;
64011;SDS011;50211;52.768;12.124;2023-06-26T11:26:29;7.30;;;4.93;;
64011;SDS011;50211;52.768;12.124;2023-06-26T11:28:55;9.40;;;5.18;;
64011;SDS011;50211;52.768;12.124;2023-06-26T11:31:28;5.90;;;4.95;;
64011;SDS011;50211;52.768;12.124;2023-06-26T11:33:58;5.75;;;5.15;;
64011;SDS011;50211;52.768;12.124;2023-06-26T11:36:25;12.10;;;5.68;;
64011;SDS011;50211;52.768;12.124;2023-06-26T11:41:20;6.75;;;5.45;;
64011;SDS011;50211;52.768;12.124;2023-06-26T11:43:46;7.50;;;5.13;;
64011;SDS011;50211;52.768;12.124;2023-06-26T11:46:12;7.43;;;5.40;;
64011;SDS011;50211;52.768;12.124;2023-06-26T11:48:38;7.40;;;5.07;;
64011;SDS011;50211;52.768;12.124;2023-06-26T11:51:04;8.38;;;5.20;;
64011;SDS011;50211;52.768;12.124;2023-06-26T11:53:30;5.90;;;5.30;;
64011;SDS011;50211;52.768;12.124;2023-06-26T11:55:56;6.68;;;5.55;;
64011;SDS011;50211;52.768;12.124;2023-06-26T11:58:22;5.55;;;4.75;;
64011;SDS011;50211;52.768;12.124;2023-06-26T12:00:47;10.10;;;5.40;;
64011;SDS011;50211;52.768;12.124;2023-06-26T12:03:13;7.05;;;5.40;;
64011;SDS011;50211;52.768;12.124;2023-06-26T12:05:39;6.53;;;5.55;;
64011;SDS011;50211;52.768;12.124;2023-06-26T12:08:05;8.50;;;5.07;;
64011;SDS011;50211;52.768;12.124;2023-06-26T12:10:32;7.95;;;5.18;;
64011;SDS011;50211;52.768;12.124;2023-06-26T12:12:58;6.20;;;5.60;;
64011;SDS011;50211;52.768;12.124;2023-06-26T12:15:26;6.82;;;5.70;;
64011;SDS011;50211;52.768;12.124;2023-06-26T12:17:53;5.47;;;4.85;;
64011;SDS011;50211;52.768;12.124;2023-06-26T12:20:21;8.02;;;5.22;;
64011;SDS011;50211;52.768;12.124;2023-06-26T12:22:47;6.90;;;5.18;;
64011;SDS011;50211;52.768;12.124;2023-06-26T12:25:14;6.78;;;5.60;;
64011;SDS011;50211;52.768;12.124;2023-06-26T12:27:39;5.85;;;5.07;;
64011;SDS011;50211;52.768;12.124;2023-06-26T12:30:05;6.03;;;4.88;;
64011;SDS011;50211;52.768;12.124;2023-06-26T12:32:31;7.60;;;5.03;;
64011;SDS011;50211;52.768;12.124;2023-06-26T12:34:57;12.55;;;5.40;;
64011;SDS011;50211;52.768;12.124;2023-06-26T12:37:23;9.73;;;5.93;;
64011;SDS011;50211;52.768;12.124;2023-06-26T12:39:53;6.63;;;5.45;;
64011;SDS011;50211;52.768;12.124;2023-06-26T12:42:26;6.93;;;5.47;;
64011;SDS011;50211;52.768;12.124;2023-06-26T12:44:53;6.50;;;5.80;;
64011;SDS011;50211;52.768;12.124;2023-06-26T12:47:24;12.50;;;5.65;;
64011;SDS011;50211;52.768;12.124;2023-06-26T12:49:54;11.55;;;5.25;;
64011;SDS011;50211;52.768;12.124;2023-06-26T12:52:20;11.98;;;5.30;;
64011;SDS011;50211;52.768;12.124;2023-06-26T12:54:46;15.55;;;5.47;;
64011;SDS011;50211;52.768;12.124;2023-06-26T12:57:16;20.40;;;6.43;;
64011;SDS011;50211;52.768;12.124;2023-06-26T12:59:41;26.85;;;7.65;;
64011;SDS011;50211;52.768;12.124;2023-06-26T13:02:08;22.80;;;7.13;;
64011;SDS011;50211;52.768;12.124;2023-06-26T13:04:34;36.55;;;7.22;;
64011;SDS011;50211;52.768;12.124;2023-06-26T13:07:00;19.10;;;7.50;;
64011;SDS011;50211;52.768;12.124;2023-06-26T13:09:26;9.15;;;6.30;;
64011;SDS011;50211;52.768;12.124;2023-06-26T13:11:52;18.10;;;6.30;;
64011;SDS011;50211;52.768;12.124;2023-06-26T13:14:18;11.48;;;6.53;;
64011;SDS011;50211;52.768;12.124;2023-06-26T13:16:44;14.57;;;6.90;;
64011;SDS011;50211;52.768;12.124;2023-06-26T13:19:10;8.60;;;6.63;;
64011;SDS011;50211;52.768;12.124;2023-06-26T13:21:35;11.48;;;9.07;;
64011;SDS011;50211;52.768;12.124;2023-06-26T13:24:02;16.17;;;8.65;;
64011;SDS011;50211;52.768;12.124;2023-06-26T13:26:29;18.75;;;7.63;;
64011;SDS011;50211;52.768;12.124;2023-06-26T13:28:55;20.10;;;6.20;;
64011;SDS011;50211;52.768;12.124;2023-06-26T13:31:21;14.25;;;6.50;;
64011;SDS011;50211;52.768;12.124;2023-06-26T13:33:47;13.98;;;6.43;;
64011;SDS011;50211;52.768;12.124;2023-06-26T13:36:17;15.35;;;5.80;;
64011;SDS011;50211;52.768;12.124;2023-06-26T13:38:43;8.48;;;5.75;;
64011;SDS011;50211;52.768;12.124;2023-06-26T13:41:08;11.85;;;5.97;;
64011;SDS011;50211;52.768;12.124;2023-06-26T13:43:34;13.55;;;5.00;;
64011;SDS011;50211;52.768;12.124;2023-06-26T13:46:00;8.32;;;3.88;;
64011;SDS011;50211;52.768;12.124;2023-06-26T13:48:27;8.30;;;3.50;;
64011;SDS011;50211;52.768;12.124;2023-06-26T13:50:53;4.65;;;3.15;;
64011;SDS011;50211;52.768;12.124;2023-06-26T13:53:19;20.38;;;4.38;;
64011;SDS011;50211;52.768;12.124;2023-06-26T13:55:44;9.20;;;4.20;;
64011;SDS011;50211;52.768;12.124;2023-06-26T13:58:10;12.98;;;4.43;;
64011;SDS011;50211;52.768;12.124;2023-06-26T14:00:36;6.60;;;3.55;;
64011;SDS011;50211;52.768;12.124;2023-06-26T14:03:03;12.50;;;3.83;;
64011;SDS011;50211;52.768;12.124;2023-06-26T14:05:29;6.60;;;4.07;;
64011;SDS011;50211;52.768;12.124;2023-06-26T14:07:55;8.25;;;4.22;;
64011;SDS011;50211;52.768;12.124;2023-06-26T14:10:21;9.43;;;4.53;;
64011;SDS011;50211;52.768;12.124;2023-06-26T14:12:47;7.75;;;3.90;;
64011;SDS011;50211;52.768;12.124;2023-06-26T14:15:12;11.60;;;4.40;;
64011;SDS011;50211;52.768;12.124;2023-06-26T14:17:38;15.70;;;4.72;;
64011;SDS011;50211;52.768;12.124;2023-06-26T14:20:05;9.00;;;4.53;;
64011;SDS011;50211;52.768;12.124;2023-06-26T14:22:33;5.32;;;3.55;;
64011;SDS011;50211;52.768;12.124;2023-06-26T14:24:59;8.07;;;4.50;;
64011;SDS011;50211;52.768;12.124;2023-06-26T14:27:24;6.80;;;4.38;;
64011;SDS011;50211;52.768;12.124;2023-06-26T14:29:50;6.38;;;4.20;;
64011;SDS011;50211;52.768;12.124;2023-06-26T14:32:15;9.05;;;3.97;;
64011;SDS011;50211;52.768;12.124;2023-06-26T14:34:41;6.15;;;3.95;;